Kinsbury, United Kingdom
Current Conditions -  °F | °C
As of 6:50 AM on Friday 31 Oct 2014 (Local Time) from EGWU Reporting Station
Moderate Fog Moderate Fog  
Wind Chill: 52°   Ceiling: 25000
Heat Index: 52°   Visibility: 0.06mi
Dew Point: 50°   Wind: 0mph
Humidity: 94%   Direction: NA
Pressure: 30.03"   Gusts: NA
Location:  51.58°N, 0.26°W
Report Text: EGWU 310650Z 00000KT 0100 FG BKN250 11/10 Q1017 RED BECMG 0800 BCFG AMB
Loading
Personal Weather Stations






























Interactive Weather Map
Tropical Storm Tracking
New forecast layout! Learn more

10-Day Weather Forecast

Advertisements
Track Severe Weather on mobile